sensor_id;sensor_type;location;lat;lon;timestamp;P1;durP1;ratioP1;P2;durP2;ratioP2
20505;SDS011;10411;48.148;7.704;2022-09-02T00:02:14;21.93;;;20.53;;
20505;SDS011;10411;48.148;7.704;2022-09-02T00:04:41;21.90;;;20.40;;
20505;SDS011;10411;48.148;7.704;2022-09-02T00:07:07;22.00;;;20.60;;
20505;SDS011;10411;48.148;7.704;2022-09-02T00:09:33;22.10;;;20.80;;
20505;SDS011;10411;48.148;7.704;2022-09-02T00:12:01;21.90;;;20.53;;
20505;SDS011;10411;48.148;7.704;2022-09-02T00:14:32;22.40;;;21.00;;
20505;SDS011;10411;48.148;7.704;2022-09-02T00:16:58;23.07;;;21.53;;
20505;SDS011;10411;48.148;7.704;2022-09-02T00:19:25;22.10;;;20.70;;
20505;SDS011;10411;48.148;7.704;2022-09-02T00:21:52;22.17;;;20.77;;
20505;SDS011;10411;48.148;7.704;2022-09-02T00:24:18;21.10;;;19.80;;
20505;SDS011;10411;48.148;7.704;2022-09-02T00:26:45;20.50;;;19.30;;
20505;SDS011;10411;48.148;7.704;2022-09-02T00:29:11;21.03;;;19.70;;
20505;SDS011;10411;48.148;7.704;2022-09-02T00:31:38;21.63;;;20.17;;
20505;SDS011;10411;48.148;7.704;2022-09-02T00:34:04;21.50;;;20.00;;
20505;SDS011;10411;48.148;7.704;2022-09-02T00:36:31;20.17;;;18.97;;
20505;SDS011;10411;48.148;7.704;2022-09-02T00:38:57;21.33;;;19.67;;
20505;SDS011;10411;48.148;7.704;2022-09-02T00:41:24;20.73;;;19.53;;
20505;SDS011;10411;48.148;7.704;2022-09-02T00:43:51;21.00;;;19.80;;
20505;SDS011;10411;48.148;7.704;2022-09-02T00:46:19;21.23;;;19.63;;
20505;SDS011;10411;48.148;7.704;2022-09-02T00:48:48;21.10;;;19.60;;
20505;SDS011;10411;48.148;7.704;2022-09-02T00:51:14;20.37;;;19.20;;
20505;SDS011;10411;48.148;7.704;2022-09-02T00:53:41;20.77;;;19.37;;
20505;SDS011;10411;48.148;7.704;2022-09-02T00:56:11;21.37;;;19.97;;
20505;SDS011;10411;48.148;7.704;2022-09-02T00:58:38;21.33;;;20.00;;
20505;SDS011;10411;48.148;7.704;2022-09-02T01:01:05;21.37;;;20.07;;
20505;SDS011;10411;48.148;7.704;2022-09-02T01:03:31;21.43;;;19.97;;
20505;SDS011;10411;48.148;7.704;2022-09-02T01:05:58;21.47;;;20.17;;
20505;SDS011;10411;48.148;7.704;2022-09-02T01:08:26;20.87;;;19.57;;
20505;SDS011;10411;48.148;7.704;2022-09-02T01:10:54;21.50;;;20.10;;
20505;SDS011;10411;48.148;7.704;2022-09-02T01:13:22;22.40;;;20.70;;
20505;SDS011;10411;48.148;7.704;2022-09-02T01:15:52;21.50;;;20.20;;
20505;SDS011;10411;48.148;7.704;2022-09-02T01:18:20;20.63;;;19.33;;
20505;SDS011;10411;48.148;7.704;2022-09-02T01:20:48;20.70;;;19.30;;
20505;SDS011;10411;48.148;7.704;2022-09-02T01:23:14;20.80;;;19.50;;
20505;SDS011;10411;48.148;7.704;2022-09-02T01:25:41;20.63;;;19.40;;
20505;SDS011;10411;48.148;7.704;2022-09-02T01:28:08;20.67;;;19.17;;
20505;SDS011;10411;48.148;7.704;2022-09-02T01:30:35;21.30;;;19.90;;
20505;SDS011;10411;48.148;7.704;2022-09-02T01:33:01;20.93;;;19.53;;
20505;SDS011;10411;48.148;7.704;2022-09-02T01:35:28;21.40;;;19.83;;
20505;SDS011;10411;48.148;7.704;2022-09-02T01:37:55;20.63;;;19.43;;
20505;SDS011;10411;48.148;7.704;2022-09-02T01:40:21;20.60;;;19.40;;
20505;SDS011;10411;48.148;7.704;2022-09-02T01:42:47;21.73;;;20.23;;
20505;SDS011;10411;48.148;7.704;2022-09-02T01:45:17;21.23;;;19.93;;
20505;SDS011;10411;48.148;7.704;2022-09-02T01:47:43;20.83;;;19.57;;
20505;SDS011;10411;48.148;7.704;2022-09-02T01:50:09;21.13;;;19.83;;
20505;SDS011;10411;48.148;7.704;2022-09-02T01:52:35;21.10;;;19.90;;
20505;SDS011;10411;48.148;7.704;2022-09-02T01:55:02;21.23;;;19.73;;
20505;SDS011;10411;48.148;7.704;2022-09-02T01:57:28;21.87;;;20.47;;
20505;SDS011;10411;48.148;7.704;2022-09-02T01:59:54;21.90;;;20.60;;
20505;SDS011;10411;48.148;7.704;2022-09-02T02:02:21;21.40;;;20.10;;
20505;SDS011;10411;48.148;7.704;2022-09-02T02:04:47;20.93;;;19.73;;
20505;SDS011;10411;48.148;7.704;2022-09-02T02:07:14;21.00;;;19.70;;
20505;SDS011;10411;48.148;7.704;2022-09-02T02:09:41;21.53;;;20.03;;
20505;SDS011;10411;48.148;7.704;2022-09-02T02:12:07;21.93;;;20.50;;
20505;SDS011;10411;48.148;7.704;2022-09-02T02:14:33;21.93;;;20.53;;
20505;SDS011;10411;48.148;7.704;2022-09-02T02:16:59;21.90;;;20.40;;
20505;SDS011;10411;48.148;7.704;2022-09-02T02:19:25;21.33;;;20.03;;
20505;SDS011;10411;48.148;7.704;2022-09-02T02:21:51;21.60;;;20.20;;
20505;SDS011;10411;48.148;7.704;2022-09-02T02:24:18;21.87;;;20.27;;
20505;SDS011;10411;48.148;7.704;2022-09-02T02:26:44;21.83;;;20.27;;
20505;SDS011;10411;48.148;7.704;2022-09-02T02:29:10;21.87;;;20.47;;
20505;SDS011;10411;48.148;7.704;2022-09-02T02:31:36;21.73;;;20.33;;
20505;SDS011;10411;48.148;7.704;2022-09-02T02:34:02;22.00;;;20.60;;
20505;SDS011;10411;48.148;7.704;2022-09-02T02:36:28;22.00;;;20.50;;
20505;SDS011;10411;48.148;7.704;2022-09-02T02:38:54;21.73;;;20.33;;
20505;SDS011;10411;48.148;7.704;2022-09-02T02:41:20;21.87;;;20.47;;
20505;SDS011;10411;48.148;7.704;2022-09-02T02:43:46;21.67;;;20.37;;
20505;SDS011;10411;48.148;7.704;2022-09-02T02:46:13;22.13;;;20.73;;
20505;SDS011;10411;48.148;7.704;2022-09-02T02:48:39;22.77;;;21.27;;
20505;SDS011;10411;48.148;7.704;2022-09-02T02:51:05;21.83;;;20.40;;
20505;SDS011;10411;48.148;7.704;2022-09-02T02:53:32;21.03;;;19.73;;
20505;SDS011;10411;48.148;7.704;2022-09-02T02:55:58;21.00;;;19.70;;
20505;SDS011;10411;48.148;7.704;2022-09-02T02:58:24;21.57;;;20.27;;
20505;SDS011;10411;48.148;7.704;2022-09-02T03:00:50;21.43;;;20.10;;
20505;SDS011;10411;48.148;7.704;2022-09-02T03:03:16;21.93;;;20.53;;
20505;SDS011;10411;48.148;7.704;2022-09-02T03:05:44;21.30;;;20.00;;
20505;SDS011;10411;48.148;7.704;2022-09-02T03:08:10;21.27;;;19.77;;
20505;SDS011;10411;48.148;7.704;2022-09-02T03:10:37;22.20;;;20.50;;
20505;SDS011;10411;48.148;7.704;2022-09-02T03:13:05;22.20;;;20.60;;
20505;SDS011;10411;48.148;7.704;2022-09-02T03:15:31;21.50;;;20.00;;
20505;SDS011;10411;48.148;7.704;2022-09-02T03:17:57;24.03;;;22.40;;
20505;SDS011;10411;48.148;7.704;2022-09-02T03:20:23;24.53;;;22.63;;
20505;SDS011;10411;48.148;7.704;2022-09-02T03:22:52;22.40;;;20.60;;
20505;SDS011;10411;48.148;7.704;2022-09-02T03:25:19;21.57;;;20.20;;
20505;SDS011;10411;48.148;7.704;2022-09-02T03:27:45;21.73;;;20.20;;
20505;SDS011;10411;48.148;7.704;2022-09-02T03:30:13;21.33;;;20.13;;
20505;SDS011;10411;48.148;7.704;2022-09-02T03:32:40;21.67;;;20.27;;
20505;SDS011;10411;48.148;7.704;2022-09-02T03:35:07;21.13;;;19.77;;
20505;SDS011;10411;48.148;7.704;2022-09-02T03:37:34;21.50;;;20.10;;
20505;SDS011;10411;48.148;7.704;2022-09-02T03:40:01;21.50;;;19.93;;
20505;SDS011;10411;48.148;7.704;2022-09-02T03:42:27;21.20;;;19.90;;
20505;SDS011;10411;48.148;7.704;2022-09-02T03:44:53;21.70;;;20.37;;
20505;SDS011;10411;48.148;7.704;2022-09-02T03:47:19;23.80;;;22.10;;
20505;SDS011;10411;48.148;7.704;2022-09-02T03:49:46;26.60;;;24.60;;
20505;SDS011;10411;48.148;7.704;2022-09-02T03:52:12;23.10;;;21.50;;
20505;SDS011;10411;48.148;7.704;2022-09-02T03:54:38;22.33;;;20.93;;
20505;SDS011;10411;48.148;7.704;2022-09-02T03:57:04;22.40;;;21.00;;
20505;SDS011;10411;48.148;7.704;2022-09-02T03:59:30;22.20;;;20.77;;
20505;SDS011;10411;48.148;7.704;2022-09-02T04:01:56;23.10;;;21.60;;
20505;SDS011;10411;48.148;7.704;2022-09-02T04:04:22;21.77;;;20.47;;
20505;SDS011;10411;48.148;7.704;2022-09-02T04:06:48;22.00;;;20.50;;
20505;SDS011;10411;48.148;7.704;2022-09-02T04:09:14;22.87;;;21.40;;
20505;SDS011;10411;48.148;7.704;2022-09-02T04:11:40;24.13;;;22.37;;
20505;SDS011;10411;48.148;7.704;2022-09-02T04:14:07;24.13;;;22.43;;
20505;SDS011;10411;48.148;7.704;2022-09-02T04:16:33;23.57;;;22.03;;
20505;SDS011;10411;48.148;7.704;2022-09-02T04:19:00;23.03;;;21.53;;
20505;SDS011;10411;48.148;7.704;2022-09-02T04:21:26;22.93;;;21.43;;
20505;SDS011;10411;48.148;7.704;2022-09-02T04:23:52;23.07;;;21.67;;
20505;SDS011;10411;48.148;7.704;2022-09-02T04:26:19;23.40;;;22.00;;
20505;SDS011;10411;48.148;7.704;2022-09-02T04:28:45;23.53;;;22.07;;
20505;SDS011;10411;48.148;7.704;2022-09-02T04:31:12;23.03;;;21.43;;
20505;SDS011;10411;48.148;7.704;2022-09-02T04:33:38;22.83;;;21.40;;
20505;SDS011;10411;48.148;7.704;2022-09-02T04:36:05;23.07;;;21.50;;
20505;SDS011;10411;48.148;7.704;2022-09-02T04:38:32;23.10;;;21.57;;
20505;SDS011;10411;48.148;7.704;2022-09-02T04:40:58;23.07;;;21.47;;
20505;SDS011;10411;48.148;7.704;2022-09-02T04:43:25;22.00;;;20.67;;
20505;SDS011;10411;48.148;7.704;2022-09-02T04:45:51;22.20;;;20.70;;
20505;SDS011;10411;48.148;7.704;2022-09-02T04:48:17;21.00;;;19.53;;
20505;SDS011;10411;48.148;7.704;2022-09-02T04:50:43;22.07;;;20.57;;
20505;SDS011;10411;48.148;7.704;2022-09-02T04:53:11;21.70;;;20.40;;
20505;SDS011;10411;48.148;7.704;2022-09-02T04:55:38;21.67;;;20.30;;
20505;SDS011;10411;48.148;7.704;2022-09-02T04:58:05;21.47;;;19.97;;
20505;SDS011;10411;48.148;7.704;2022-09-02T05:00:31;21.30;;;20.00;;
20505;SDS011;10411;48.148;7.704;2022-09-02T05:02:57;21.20;;;19.80;;
20505;SDS011;10411;48.148;7.704;2022-09-02T05:05:23;20.93;;;19.53;;
20505;SDS011;10411;48.148;7.704;2022-09-02T05:07:49;21.50;;;20.10;;
20505;SDS011;10411;48.148;7.704;2022-09-02T05:10:15;21.57;;;20.10;;
20505;SDS011;10411;48.148;7.704;2022-09-02T05:12:41;21.90;;;20.30;;
20505;SDS011;10411;48.148;7.704;2022-09-02T05:15:07;21.33;;;19.83;;
20505;SDS011;10411;48.148;7.704;2022-09-02T05:17:34;21.13;;;19.73;;
20505;SDS011;10411;48.148;7.704;2022-09-02T05:20:01;21.80;;;20.27;;
20505;SDS011;10411;48.148;7.704;2022-09-02T05:22:27;21.40;;;20.10;;
20505;SDS011;10411;48.148;7.704;2022-09-02T05:24:53;22.43;;;21.03;;
20505;SDS011;10411;48.148;7.704;2022-09-02T05:27:19;22.47;;;20.93;;
20505;SDS011;10411;48.148;7.704;2022-09-02T05:29:47;22.90;;;21.07;;
20505;SDS011;10411;48.148;7.704;2022-09-02T05:32:13;22.30;;;20.50;;
20505;SDS011;10411;48.148;7.704;2022-09-02T05:34:40;21.27;;;19.93;;
20505;SDS011;10411;48.148;7.704;2022-09-02T05:37:06;21.63;;;20.10;;
20505;SDS011;10411;48.148;7.704;2022-09-02T05:39:32;20.97;;;19.67;;
20505;SDS011;10411;48.148;7.704;2022-09-02T05:41:58;21.50;;;19.93;;
20505;SDS011;10411;48.148;7.704;2022-09-02T05:44:24;21.03;;;19.70;;
20505;SDS011;10411;48.148;7.704;2022-09-02T05:46:50;21.80;;;20.30;;
20505;SDS011;10411;48.148;7.704;2022-09-02T05:49:16;21.30;;;19.87;;
20505;SDS011;10411;48.148;7.704;2022-09-02T05:51:46;21.03;;;19.63;;
20505;SDS011;10411;48.148;7.704;2022-09-02T05:54:31;23.13;;;20.93;;
20505;SDS011;10411;48.148;7.704;2022-09-02T05:56:59;21.63;;;20.27;;
20505;SDS011;10411;48.148;7.704;2022-09-02T05:59:26;21.63;;;20.13;;
20505;SDS011;10411;48.148;7.704;2022-09-02T06:01:52;21.13;;;19.67;;
20505;SDS011;10411;48.148;7.704;2022-09-02T06:04:19;21.33;;;19.47;;
20505;SDS011;10411;48.148;7.704;2022-09-02T06:06:46;22.97;;;21.23;;
20505;SDS011;10411;48.148;7.704;2022-09-02T06:09:13;23.23;;;21.73;;
20505;SDS011;10411;48.148;7.704;2022-09-02T06:11:40;22.03;;;20.70;;
20505;SDS011;10411;48.148;7.704;2022-09-02T06:27:06;21.70;;;20.10;;
20505;SDS011;10411;48.148;7.704;2022-09-02T06:29:32;22.37;;;20.90;;
20505;SDS011;10411;48.148;7.704;2022-09-02T06:31:58;22.23;;;20.40;;
20505;SDS011;10411;48.148;7.704;2022-09-02T06:34:24;21.97;;;20.37;;
20505;SDS011;10411;48.148;7.704;2022-09-02T06:36:51;21.40;;;20.00;;
20505;SDS011;10411;48.148;7.704;2022-09-02T06:39:18;21.80;;;20.40;;
20505;SDS011;10411;48.148;7.704;2022-09-02T06:41:44;21.67;;;20.10;;
20505;SDS011;10411;48.148;7.704;2022-09-02T06:44:12;20.90;;;19.40;;
20505;SDS011;10411;48.148;7.704;2022-09-02T06:46:41;20.87;;;19.40;;
20505;SDS011;10411;48.148;7.704;2022-09-02T06:49:07;21.10;;;19.67;;
20505;SDS011;10411;48.148;7.704;2022-09-02T06:51:35;20.60;;;19.20;;
20505;SDS011;10411;48.148;7.704;2022-09-02T06:54:02;20.03;;;18.67;;
20505;SDS011;10411;48.148;7.704;2022-09-02T06:56:28;19.97;;;18.47;;
20505;SDS011;10411;48.148;7.704;2022-09-02T06:58:55;20.53;;;19.23;;
20505;SDS011;10411;48.148;7.704;2022-09-02T07:01:25;21.42;;;19.80;;
20505;SDS011;10411;48.148;7.704;2022-09-02T07:03:51;19.85;;;18.45;;
20505;SDS011;10411;48.148;7.704;2022-09-02T07:06:37;19.80;;;18.27;;
20505;SDS011;10411;48.148;7.704;2022-09-02T07:09:04;19.40;;;18.05;;
20505;SDS011;10411;48.148;7.704;2022-09-02T07:11:31;19.30;;;17.90;;
20505;SDS011;10411;48.148;7.704;2022-09-02T07:13:57;19.20;;;18.10;;
20505;SDS011;10411;48.148;7.704;2022-09-02T07:16:25;19.02;;;17.77;;
20505;SDS011;10411;48.148;7.704;2022-09-02T07:18:52;18.30;;;17.20;;
20505;SDS011;10411;48.148;7.704;2022-09-02T07:21:18;20.02;;;18.73;;
20505;SDS011;10411;48.148;7.704;2022-09-02T07:23:44;19.95;;;18.58;;
20505;SDS011;10411;48.148;7.704;2022-09-02T07:26:11;19.90;;;18.60;;
20505;SDS011;10411;48.148;7.704;2022-09-02T07:28:37;19.85;;;18.30;;
20505;SDS011;10411;48.148;7.704;2022-09-02T07:31:06;20.20;;;19.02;;
20505;SDS011;10411;48.148;7.704;2022-09-02T07:36:08;20.30;;;18.70;;
20505;SDS011;10411;48.148;7.704;2022-09-02T07:38:34;20.60;;;19.25;;
20505;SDS011;10411;48.148;7.704;2022-09-02T07:41:00;19.98;;;18.65;;
20505;SDS011;10411;48.148;7.704;2022-09-02T07:43:27;19.15;;;18.08;;
20505;SDS011;10411;48.148;7.704;2022-09-02T07:45:53;19.40;;;18.35;;
20505;SDS011;10411;48.148;7.704;2022-09-02T07:48:23;18.58;;;17.45;;
20505;SDS011;10411;48.148;7.704;2022-09-02T07:50:49;18.00;;;16.77;;
20505;SDS011;10411;48.148;7.704;2022-09-02T07:53:16;19.20;;;18.00;;
20505;SDS011;10411;48.148;7.704;2022-09-02T07:55:42;19.10;;;18.00;;
20505;SDS011;10411;48.148;7.704;2022-09-02T07:58:09;19.00;;;17.75;;
20505;SDS011;10411;48.148;7.704;2022-09-02T08:00:35;19.23;;;17.92;;
20505;SDS011;10411;48.148;7.704;2022-09-02T08:03:01;18.02;;;17.02;;
20505;SDS011;10411;48.148;7.704;2022-09-02T08:05:29;18.50;;;17.40;;
20505;SDS011;10411;48.148;7.704;2022-09-02T08:07:55;18.95;;;17.85;;
20505;SDS011;10411;48.148;7.704;2022-09-02T08:10:21;18.52;;;17.33;;
20505;SDS011;10411;48.148;7.704;2022-09-02T08:12:49;18.70;;;17.70;;
20505;SDS011;10411;48.148;7.704;2022-09-02T08:15:15;19.00;;;17.83;;
20505;SDS011;10411;48.148;7.704;2022-09-02T08:17:43;18.40;;;17.30;;
20505;SDS011;10411;48.148;7.704;2022-09-02T08:20:10;18.80;;;17.70;;
20505;SDS011;10411;48.148;7.704;2022-09-02T08:22:37;18.17;;;17.17;;
20505;SDS011;10411;48.148;7.704;2022-09-02T08:25:03;18.30;;;17.30;;
20505;SDS011;10411;48.148;7.704;2022-09-02T08:27:29;18.15;;;17.15;;
20505;SDS011;10411;48.148;7.704;2022-09-02T08:29:56;18.42;;;17.20;;
20505;SDS011;10411;48.148;7.704;2022-09-02T08:32:23;17.25;;;16.35;;
20505;SDS011;10411;48.148;7.704;2022-09-02T08:37:26;15.75;;;14.73;;
20505;SDS011;10411;48.148;7.704;2022-09-02T08:39:52;15.50;;;14.68;;
20505;SDS011;10411;48.148;7.704;2022-09-02T08:42:21;15.60;;;14.50;;
20505;SDS011;10411;48.148;7.704;2022-09-02T08:44:48;16.02;;;15.13;;
20505;SDS011;10411;48.148;7.704;2022-09-02T08:47:19;16.15;;;15.15;;
20505;SDS011;10411;48.148;7.704;2022-09-02T08:49:56;15.50;;;14.70;;
20505;SDS011;10411;48.148;7.704;2022-09-02T08:52:28;15.57;;;14.73;;
20505;SDS011;10411;48.148;7.704;2022-09-02T08:54:56;16.33;;;15.38;;
20505;SDS011;10411;48.148;7.704;2022-09-02T08:57:23;16.05;;;15.25;;
20505;SDS011;10411;48.148;7.704;2022-09-02T08:59:51;16.52;;;15.63;;
20505;SDS011;10411;48.148;7.704;2022-09-02T09:05:22;17.33;;;16.08;;
20505;SDS011;10411;48.148;7.704;2022-09-02T09:12:53;16.95;;;15.77;;
20505;SDS011;10411;48.148;7.704;2022-09-02T09:15:27;15.52;;;14.65;;
20505;SDS011;10411;48.148;7.704;2022-09-02T09:17:58;16.52;;;15.43;;
20505;SDS011;10411;48.148;7.704;2022-09-02T09:20:27;16.42;;;15.45;;
20505;SDS011;10411;48.148;7.704;2022-09-02T09:22:55;15.95;;;15.00;;
20505;SDS011;10411;48.148;7.704;2022-09-02T09:25:21;15.90;;;15.10;;
20505;SDS011;10411;48.148;7.704;2022-09-02T09:27:53;16.23;;;15.43;;
20505;SDS011;10411;48.148;7.704;2022-09-02T09:30:19;15.82;;;15.02;;
20505;SDS011;10411;48.148;7.704;2022-09-02T09:32:46;16.35;;;15.35;;
20505;SDS011;10411;48.148;7.704;2022-09-02T09:35:14;17.98;;;16.92;;
20505;SDS011;10411;48.148;7.704;2022-09-02T09:37:44;17.98;;;16.98;;
20505;SDS011;10411;48.148;7.704;2022-09-02T09:42:44;18.73;;;17.52;;
20505;SDS011;10411;48.148;7.704;2022-09-02T09:47:44;18.35;;;17.27;;
20505;SDS011;10411;48.148;7.704;2022-09-02T09:52:36;19.65;;;18.35;;
20505;SDS011;10411;48.148;7.704;2022-09-02T09:57:31;19.67;;;18.48;;
20505;SDS011;10411;48.148;7.704;2022-09-02T09:59:57;19.38;;;18.27;;
20505;SDS011;10411;48.148;7.704;2022-09-02T10:02:26;19.63;;;18.40;;
20505;SDS011;10411;48.148;7.704;2022-09-02T10:05:08;19.88;;;18.67;;
20505;SDS011;10411;48.148;7.704;2022-09-02T10:07:38;19.45;;;18.25;;
20505;SDS011;10411;48.148;7.704;2022-09-02T10:10:15;19.40;;;18.13;;
20505;SDS011;10411;48.148;7.704;2022-09-02T10:12:41;19.90;;;18.80;;
20505;SDS011;10411;48.148;7.704;2022-09-02T10:15:07;19.80;;;18.60;;
20505;SDS011;10411;48.148;7.704;2022-09-02T10:17:46;20.75;;;19.45;;
20505;SDS011;10411;48.148;7.704;2022-09-02T10:30:52;21.50;;;20.17;;
20505;SDS011;10411;48.148;7.704;2022-09-02T10:35:46;19.38;;;18.33;;
20505;SDS011;10411;48.148;7.704;2022-09-02T10:40:47;20.00;;;18.80;;
20505;SDS011;10411;48.148;7.704;2022-09-02T10:45:53;20.30;;;19.10;;
20505;SDS011;10411;48.148;7.704;2022-09-02T10:50:47;20.05;;;18.95;;
20505;SDS011;10411;48.148;7.704;2022-09-02T10:55:53;21.08;;;19.85;;
20505;SDS011;10411;48.148;7.704;2022-09-02T11:00:54;21.60;;;20.40;;
20505;SDS011;10411;48.148;7.704;2022-09-02T11:03:38;21.05;;;19.85;;
20505;SDS011;10411;48.148;7.704;2022-09-02T11:06:08;20.10;;;18.90;;
20505;SDS011;10411;48.148;7.704;2022-09-02T11:08:38;20.13;;;18.90;;
20505;SDS011;10411;48.148;7.704;2022-09-02T11:16:04;19.45;;;18.40;;
20505;SDS011;10411;48.148;7.704;2022-09-02T11:18:53;20.45;;;18.98;;
20505;SDS011;10411;48.148;7.704;2022-09-02T11:21:28;20.07;;;18.97;;
20505;SDS011;10411;48.148;7.704;2022-09-02T11:24:04;19.98;;;18.77;;
20505;SDS011;10411;48.148;7.704;2022-09-02T11:26:39;19.80;;;18.70;;
20505;SDS011;10411;48.148;7.704;2022-09-02T11:29:13;19.53;;;18.43;;
20505;SDS011;10411;48.148;7.704;2022-09-02T11:36:39;18.73;;;17.43;;
20505;SDS011;10411;48.148;7.704;2022-09-02T11:39:15;19.70;;;18.60;;
20505;SDS011;10411;48.148;7.704;2022-09-02T11:41:46;19.57;;;18.47;;
20505;SDS011;10411;48.148;7.704;2022-09-02T11:44:22;19.73;;;18.63;;
20505;SDS011;10411;48.148;7.704;2022-09-02T11:57:35;20.37;;;19.17;;
20505;SDS011;10411;48.148;7.704;2022-09-02T12:00:05;20.37;;;19.07;;
20505;SDS011;10411;48.148;7.704;2022-09-02T12:07:46;19.50;;;18.30;;
20505;SDS011;10411;48.148;7.704;2022-09-02T12:10:55;19.43;;;18.33;;
20505;SDS011;10411;48.148;7.704;2022-09-02T12:15:26;19.33;;;17.97;;
20505;SDS011;10411;48.148;7.704;2022-09-02T12:23:03;19.83;;;18.50;;
20505;SDS011;10411;48.148;7.704;2022-09-02T12:28:15;21.63;;;20.13;;
20505;SDS011;10411;48.148;7.704;2022-09-02T12:33:28;18.93;;;17.93;;
20505;SDS011;10411;48.148;7.704;2022-09-02T12:35:55;18.70;;;17.60;;
20505;SDS011;10411;48.148;7.704;2022-09-02T12:38:23;18.90;;;17.70;;
20505;SDS011;10411;48.148;7.704;2022-09-02T12:40:52;18.90;;;17.70;;
20505;SDS011;10411;48.148;7.704;2022-09-02T12:43:21;18.90;;;17.80;;
20505;SDS011;10411;48.148;7.704;2022-09-02T12:45:50;20.53;;;19.07;;
20505;SDS011;10411;48.148;7.704;2022-09-02T12:48:18;19.07;;;17.97;;
20505;SDS011;10411;48.148;7.704;2022-09-02T12:56:04;18.93;;;17.83;;
20505;SDS011;10411;48.148;7.704;2022-09-02T12:58:34;19.17;;;18.07;;
20505;SDS011;10411;48.148;7.704;2022-09-02T13:03:48;18.93;;;17.93;;
20505;SDS011;10411;48.148;7.704;2022-09-02T13:06:23;19.00;;;17.90;;
20505;SDS011;10411;48.148;7.704;2022-09-02T13:11:48;18.57;;;17.53;;
20505;SDS011;10411;48.148;7.704;2022-09-02T13:22:22;18.93;;;17.90;;
20505;SDS011;10411;48.148;7.704;2022-09-02T13:25:03;18.80;;;17.70;;
20505;SDS011;10411;48.148;7.704;2022-09-02T13:30:18;18.90;;;17.57;;
20505;SDS011;10411;48.148;7.704;2022-09-02T13:33:07;18.40;;;17.20;;
20505;SDS011;10411;48.148;7.704;2022-09-02T13:35:35;20.20;;;19.00;;
20505;SDS011;10411;48.148;7.704;2022-09-02T13:38:02;19.40;;;18.30;;
20505;SDS011;10411;48.148;7.704;2022-09-02T13:40:32;20.37;;;18.90;;
20505;SDS011;10411;48.148;7.704;2022-09-02T13:43:02;19.63;;;18.43;;
20505;SDS011;10411;48.148;7.704;2022-09-02T13:45:29;18.07;;;17.07;;
20505;SDS011;10411;48.148;7.704;2022-09-02T13:47:57;18.20;;;17.20;;
20505;SDS011;10411;48.148;7.704;2022-09-02T13:50:24;18.23;;;17.23;;
20505;SDS011;10411;48.148;7.704;2022-09-02T13:52:52;19.40;;;18.20;;
20505;SDS011;10411;48.148;7.704;2022-09-02T13:55:19;18.77;;;17.67;;
20505;SDS011;10411;48.148;7.704;2022-09-02T13:57:48;18.90;;;17.80;;
20505;SDS011;10411;48.148;7.704;2022-09-02T14:00:18;19.00;;;17.90;;
20505;SDS011;10411;48.148;7.704;2022-09-02T14:02:57;19.50;;;18.40;;
20505;SDS011;10411;48.148;7.704;2022-09-02T14:05:24;18.37;;;17.37;;
20505;SDS011;10411;48.148;7.704;2022-09-02T14:07:54;18.70;;;17.70;;
20505;SDS011;10411;48.148;7.704;2022-09-02T14:10:21;19.00;;;17.90;;
20505;SDS011;10411;48.148;7.704;2022-09-02T14:12:48;18.40;;;17.30;;
20505;SDS011;10411;48.148;7.704;2022-09-02T14:15:16;18.53;;;17.53;;
20505;SDS011;10411;48.148;7.704;2022-09-02T14:17:42;18.50;;;17.50;;
20505;SDS011;10411;48.148;7.704;2022-09-02T14:20:18;18.02;;;17.02;;
20505;SDS011;10411;48.148;7.704;2022-09-02T14:22:52;18.70;;;17.50;;
20505;SDS011;10411;48.148;7.704;2022-09-02T14:25:18;19.17;;;17.97;;
20505;SDS011;10411;48.148;7.704;2022-09-02T14:27:52;18.00;;;17.00;;
20505;SDS011;10411;48.148;7.704;2022-09-02T14:35:41;17.67;;;16.77;;
20505;SDS011;10411;48.148;7.704;2022-09-02T14:38:22;18.07;;;17.00;;
20505;SDS011;10411;48.148;7.704;2022-09-02T14:40:49;18.23;;;17.07;;
20505;SDS011;10411;48.148;7.704;2022-09-02T14:43:23;16.80;;;15.93;;
20505;SDS011;10411;48.148;7.704;2022-09-02T14:45:49;18.73;;;17.63;;
20505;SDS011;10411;48.148;7.704;2022-09-02T14:48:22;18.50;;;17.50;;
20505;SDS011;10411;48.148;7.704;2022-09-02T14:50:48;18.80;;;17.70;;
20505;SDS011;10411;48.148;7.704;2022-09-02T14:53:20;18.80;;;17.80;;
20505;SDS011;10411;48.148;7.704;2022-09-02T14:55:48;19.20;;;18.07;;
20505;SDS011;10411;48.148;7.704;2022-09-02T14:58:16;18.50;;;17.50;;
20505;SDS011;10411;48.148;7.704;2022-09-02T15:00:46;18.70;;;17.60;;
20505;SDS011;10411;48.148;7.704;2022-09-02T15:03:15;19.00;;;17.80;;
20505;SDS011;10411;48.148;7.704;2022-09-02T15:05:42;18.40;;;17.27;;
20505;SDS011;10411;48.148;7.704;2022-09-02T15:08:08;18.40;;;17.20;;
20505;SDS011;10411;48.148;7.704;2022-09-02T15:10:35;18.10;;;17.00;;
20505;SDS011;10411;48.148;7.704;2022-09-02T15:13:02;18.13;;;17.13;;
20505;SDS011;10411;48.148;7.704;2022-09-02T15:15:28;18.50;;;17.40;;
20505;SDS011;10411;48.148;7.704;2022-09-02T15:17:54;18.23;;;16.97;;
20505;SDS011;10411;48.148;7.704;2022-09-02T15:20:20;18.83;;;17.67;;
20505;SDS011;10411;48.148;7.704;2022-09-02T15:22:47;19.00;;;17.80;;
20505;SDS011;10411;48.148;7.704;2022-09-02T15:25:13;18.53;;;17.37;;
20505;SDS011;10411;48.148;7.704;2022-09-02T15:27:39;18.73;;;17.63;;
20505;SDS011;10411;48.148;7.704;2022-09-02T15:30:05;19.13;;;17.97;;
20505;SDS011;10411;48.148;7.704;2022-09-02T15:32:33;19.43;;;18.07;;
20505;SDS011;10411;48.148;7.704;2022-09-02T15:34:59;18.20;;;17.20;;
20505;SDS011;10411;48.148;7.704;2022-09-02T15:37:25;18.60;;;17.50;;
20505;SDS011;10411;48.148;7.704;2022-09-02T15:39:52;18.83;;;17.73;;
20505;SDS011;10411;48.148;7.704;2022-09-02T15:42:18;19.27;;;18.17;;
20505;SDS011;10411;48.148;7.704;2022-09-02T15:44:44;19.00;;;17.90;;
20505;SDS011;10411;48.148;7.704;2022-09-02T15:47:10;18.40;;;17.27;;
20505;SDS011;10411;48.148;7.704;2022-09-02T15:49:36;19.00;;;17.90;;
20505;SDS011;10411;48.148;7.704;2022-09-02T15:52:02;18.67;;;17.57;;
20505;SDS011;10411;48.148;7.704;2022-09-02T15:54:28;20.43;;;18.80;;
20505;SDS011;10411;48.148;7.704;2022-09-02T15:56:56;20.73;;;19.43;;
20505;SDS011;10411;48.148;7.704;2022-09-02T15:59:22;18.73;;;17.43;;
20505;SDS011;10411;48.148;7.704;2022-09-02T16:01:49;18.37;;;17.30;;
20505;SDS011;10411;48.148;7.704;2022-09-02T16:04:16;18.53;;;17.43;;
20505;SDS011;10411;48.148;7.704;2022-09-02T16:06:43;18.57;;;17.23;;
20505;SDS011;10411;48.148;7.704;2022-09-02T16:09:12;18.27;;;17.00;;
20505;SDS011;10411;48.148;7.704;2022-09-02T16:11:38;18.97;;;17.50;;
20505;SDS011;10411;48.148;7.704;2022-09-02T16:14:04;19.00;;;17.80;;
20505;SDS011;10411;48.148;7.704;2022-09-02T16:16:31;18.93;;;17.93;;
20505;SDS011;10411;48.148;7.704;2022-09-02T16:18:57;18.53;;;17.53;;
20505;SDS011;10411;48.148;7.704;2022-09-02T16:21:23;19.13;;;17.90;;
20505;SDS011;10411;48.148;7.704;2022-09-02T16:23:49;18.17;;;17.10;;
20505;SDS011;10411;48.148;7.704;2022-09-02T16:26:26;20.03;;;18.67;;
20505;SDS011;10411;48.148;7.704;2022-09-02T16:28:56;19.53;;;18.23;;
20505;SDS011;10411;48.148;7.704;2022-09-02T16:31:23;19.13;;;18.03;;
20505;SDS011;10411;48.148;7.704;2022-09-02T16:33:50;19.10;;;17.93;;